Time;durP1;ratioP1;P1;durP2;ratioP2;P2;SDS_P1;SDS_P2;PMS_P1;PMS_P2;Temp;Humidity;BMP_temperature;BMP_pressure;BME280_temperature;BME280_humidity;BME280_pressure;Samples;Min_cycle;Max_cycle;Signal;HPM_P1;HPM_P2
2022/10/11 00:01:18;;;;;;;21.40;19.15;;;;;;;28.41;77.40;101032.38;5003549;28;65298;-38
2022/10/11 00:03:49;;;;;;;19.63;17.53;;;;;;;28.49;75.51;101040.31;5017508;28;70087;-38
2022/10/11 00:06:19;;;;;;;19.98;18.13;;;;;;;28.49;77.38;101030.34;5015887;28;66243;-39
2022/10/11 00:08:50;;;;;;;21.63;17.63;;;;;;;28.57;75.75;101042.84;5018233;28;70177;-40
2022/10/11 00:11:20;;;;;;;20.80;17.33;;;;;;;28.58;77.05;101038.28;5017643;28;66429;-38
2022/10/11 00:13:51;;;;;;;18.23;16.42;;;;;;;28.65;75.49;101049.97;5017700;28;70109;-38
2022/10/11 00:16:22;;;;;;;17.13;15.65;;;;;;;28.51;75.61;101022.91;5018363;28;66504;-38
2022/10/11 00:18:52;;;;;;;17.58;16.00;;;;;;;28.59;75.94;101029.19;5020235;28;70022;-39
2022/10/11 00:21:22;;;;;;;16.30;14.90;;;;;;;28.79;72.51;101057.06;5020933;28;66288;-40
2022/10/11 00:23:53;;;;;;;15.73;14.13;;;;;;;28.74;71.79;101054.97;5015512;28;69737;-40
2022/10/11 00:26:23;;;;;;;15.07;13.77;;;;;;;28.85;71.69;101074.34;5018643;28;66123;-38
2022/10/11 00:28:54;;;;;;;16.40;14.65;;;;;;;28.67;70.98;101032.53;5004553;28;70115;-38
2022/10/11 00:31:25;;;;;;;14.65;13.38;;;;;;;28.87;71.14;101070.41;5021093;28;66360;-39
2022/10/11 00:34:00;;;;;;;14.02;12.95;;;;;;;28.92;71.15;101080.59;5019754;28;71036;-39
2022/10/11 00:36:31;;;;;;;15.80;13.93;;;;;;;28.90;71.42;101079.97;5020455;28;66185;-40
2022/10/11 00:39:01;;;;;;;15.35;13.80;;;;;;;28.98;70.91;101081.66;5019173;28;70488;-38
2022/10/11 00:41:32;;;;;;;15.25;13.98;;;;;;;28.94;70.89;101071.22;5013281;28;65545;-39
2022/10/11 00:44:18;;;;;;;15.88;14.45;;;;;;;28.96;71.20;101085.38;5022000;28;70125;-38
2022/10/11 00:47:09;;;;;;;14.32;13.23;;;;;;;28.98;70.96;101087.06;5021055;28;66387;-38
2022/10/11 00:49:48;;;;;;;14.27;13.23;;;;;;;29.04;71.37;101097.06;5023032;28;70053;-39
2022/10/11 00:52:41;;;;;;;15.43;14.02;;;;;;;28.91;70.91;101109.44;5020874;28;65764;-39
2022/10/11 00:55:16;;;;;;;14.68;13.57;;;;;;;28.45;71.55;100991.34;5020833;28;71657;-39
2022/10/11 00:57:49;;;;;;;14.88;13.27;;;;;;;29.14;71.38;101102.91;5016949;28;66075;-39
2022/10/11 01:00:19;;;;;;;14.00;12.88;;;;;;;29.14;71.29;101102.91;5021863;28;70136;-39
2022/10/11 01:02:50;;;;;;;12.95;12.18;;;;;;;29.16;71.28;101111.66;5021579;28;65403;-39
2022/10/11 01:05:22;;;;;;;14.10;13.10;;;;;;;29.13;71.34;101101.25;5022586;28;69399;-38
2022/10/11 01:08:00;;;;;;;14.02;13.05;;;;;;;29.14;71.67;101100.22;5005136;28;66102;-38
2022/10/11 01:10:31;;;;;;;13.80;12.88;;;;;;;29.22;71.01;101110.81;5021566;28;70352;-38
2022/10/11 01:13:26;;;;;;;13.27;12.30;;;;;;;29.22;71.34;101104.59;5018447;28;66147;-38
2022/10/11 01:16:28;;;;;;;13.10;12.10;;;;;;;29.10;70.98;101112.47;5012834;28;70124;-39
2022/10/11 01:19:15;;;;;;;14.10;12.67;;;;;;;29.21;70.96;101111.88;5016660;28;67408;-39
2022/10/11 01:22:13;;;;;;;12.40;11.50;;;;;;;29.09;71.56;101117.03;5017308;28;70088;-38
2022/10/11 01:25:16;;;;;;;12.98;12.10;;;;;;;29.04;71.15;101105.19;5022303;28;66346;-40
2022/10/11 01:28:07;;;;;;;13.10;12.02;;;;;;;28.96;71.47;101073.75;5011870;28;70584;-39
2022/10/11 01:30:39;;;;;;;13.90;12.70;;;;;;;29.31;71.13;101136.66;5020132;28;64837;-39
2022/10/11 01:33:09;;;;;;;12.45;11.60;;;;;;;29.32;71.20;101143.72;5020202;28;70302;-38
2022/10/11 01:36:11;;;;;;;12.48;11.60;;;;;;;29.24;71.32;101148.47;5021713;28;65608;-39
2022/10/11 01:38:55;;;;;;;;;;;;;;;28.94;72.63;101140.63;5019372;28;69675;-38
2022/10/11 01:41:36;;;;;;;12.55;11.75;;;;;;;29.20;71.22;101129.13;5020315;28;66861;-39
2022/10/11 01:44:08;;;;;;;13.35;12.30;;;;;;;28.93;71.01;101064.19;5023057;28;70086;-39
2022/10/11 01:46:40;;;;;;;12.88;11.95;;;;;;;29.43;71.50;101133.34;5020093;28;65730;-39
2022/10/11 01:49:10;;;;;;;13.38;12.27;;;;;;;29.44;71.57;101151.22;5021460;28;70263;-39
2022/10/11 01:51:45;;;;;;;12.82;11.93;;;;;;;29.00;71.72;101068.75;5021499;28;66577;-39
2022/10/11 01:54:29;;;;;;;12.20;11.38;;;;;;;29.50;71.00;101155.81;5019252;28;69651;-39
2022/10/11 01:57:56;;;;;;;13.70;12.40;;;;;;;29.39;71.75;101158.09;5012428;28;66034;-38
2022/10/11 02:00:33;;;;;;;13.07;12.05;;;;;;;29.13;71.70;101090.44;5018861;28;70132;-38
2022/10/11 02:03:14;;;;;;;13.27;12.18;;;;;;;29.54;71.31;101165.19;5015933;28;66450;-38
2022/10/11 02:05:51;;;;;;;13.25;12.18;;;;;;;29.57;71.85;101167.47;5012467;28;69409;-38
2022/10/11 02:08:42;;;;;;;12.48;11.73;;;;;;;29.62;71.51;101170.41;5019417;28;66644;-39
2022/10/11 02:11:34;;;;;;;13.23;12.23;;;;;;;29.63;71.60;101166.69;5085961;27;44678;-38
2022/10/11 02:14:22;;;;;;;12.88;12.02;;;;;;;29.67;71.59;101157.13;5063518;28;43559;-39
2022/10/11 02:17:19;;;;;;;13.43;12.13;;;;;;;29.65;72.00;101159.22;5099845;27;43645;-40
2022/10/11 02:20:06;;;;;;;12.18;11.48;;;;;;;29.70;72.05;101155.88;5061197;27;2369161;-39
2022/10/11 02:22:57;;;;;;;12.20;11.40;;;;;;;29.73;72.10;101164.41;5098947;27;43594;-38
2022/10/11 02:25:44;;;;;;;11.93;11.13;;;;;;;29.75;71.53;101154.22;5091108;27;43714;-40
2022/10/11 02:28:31;;;;;;;12.45;11.75;;;;;;;29.04;71.91;101037.66;5097793;27;44582;-39
2022/10/11 02:31:16;;;;;;;12.40;11.60;;;;;;;29.38;71.65;101078.03;5118676;27;44247;-39
2022/10/11 02:34:20;;;;;;;12.48;11.35;;;;;;;29.76;71.53;101161.31;5098895;27;43578;-39
2022/10/11 02:37:18;;;;;;;12.40;11.45;;;;;;;29.76;72.23;101155.06;5058276;28;44358;-39
2022/10/11 02:40:24;;;;;;;12.65;11.80;;;;;;;29.74;71.72;101157.97;5134027;27;42983;-38
2022/10/11 02:43:36;;;;;;;12.75;11.98;;;;;;;29.73;72.44;101156.31;5070389;27;44359;-40
2022/10/11 02:46:18;;;;;;;12.90;11.80;;;;;;;29.87;72.17;101146.34;5061550;27;2347223;-39
2022/10/11 02:49:01;;;;;;;12.80;11.90;;;;;;;29.89;72.06;101146.13;5078694;27;43564;-40
2022/10/11 02:51:44;;;;;;;13.23;12.05;;;;;;;29.97;71.88;101145.91;5100735;27;44229;-39
2022/10/11 02:54:27;;;;;;;14.13;12.73;;;;;;;29.99;72.51;101151.94;5091582;27;43600;-38
2022/10/11 02:57:10;;;;;;;11.77;10.98;;;;;;;30.02;71.98;101155.06;5097874;27;43566;-39
2022/10/11 02:59:53;;;;;;;12.07;11.23;;;;;;;30.04;72.02;101147.59;5100211;27;42898;-39
2022/10/11 03:02:38;;;;;;;11.82;10.77;;;;;;;30.07;72.19;101146.34;5091500;27;43862;-39
2022/10/11 03:05:22;;;;;;;12.50;11.43;;;;;;;30.11;72.36;101146.75;5088725;27;44434;-38
2022/10/11 03:08:12;;;;;;;11.57;10.57;;;;;;;30.14;72.13;101149.84;5105511;27;43758;-39
2022/10/11 03:10:56;;;;;;;10.52;9.90;;;;;;;30.15;71.89;101138.00;5076954;27;44325;-38
2022/10/11 03:13:41;;;;;;;11.50;10.43;;;;;;;30.19;72.09;101147.34;5093843;27;42950;-40
2022/10/11 03:16:24;;;;;;;11.30;10.70;;;;;;;30.20;71.70;101138.22;5104171;27;42820;-38
2022/10/11 03:19:07;;;;;;;11.10;10.20;;;;;;;30.21;71.84;101137.16;5092063;27;43720;-39
2022/10/11 03:21:50;;;;;;;10.43;9.35;;;;;;;30.26;71.35;101142.00;5095302;27;44918;-38
2022/10/11 03:24:33;;;;;;;10.50;9.80;;;;;;;30.29;71.82;101133.44;5072169;27;44344;-39
2022/10/11 03:27:16;;;;;;;10.23;9.63;;;;;;;30.00;71.58;101080.56;5075952;27;43080;-38
2022/10/11 03:29:59;;;;;;;10.98;10.05;;;;;;;30.33;71.24;101123.03;5096615;27;42989;-39
2022/10/11 03:32:43;;;;;;;10.00;9.07;;;;;;;30.36;71.55;101128.84;5097791;27;43641;-38
2022/10/11 03:35:26;;;;;;;9.63;8.80;;;;;;;30.39;71.41;101133.81;5058618;28;43569;-39
2022/10/11 03:38:17;;;;;;;10.32;9.52;;;;;;;30.34;71.17;101108.44;5097636;27;44577;-39
2022/10/11 03:40:58;;;;;;;9.90;9.00;;;;;;;30.31;71.18;101098.03;5068853;27;2302406;-39
2022/10/11 03:43:42;;;;;;;8.98;8.38;;;;;;;30.46;71.27;101112.19;5093158;27;43720;-38
2022/10/11 03:46:26;;;;;;;9.15;8.35;;;;;;;30.45;70.84;101100.53;5108599;27;43793;-40
2022/10/11 03:49:09;;;;;;;9.18;8.55;;;;;;;30.40;70.42;101080.56;5108946;27;44214;-39
2022/10/11 03:51:52;;;;;;;8.90;8.20;;;;;;;30.51;70.75;101082.59;5106057;27;43700;-40
2022/10/11 03:54:38;;;;;;;7.57;7.07;;;;;;;30.55;70.47;101094.66;5098899;27;43626;-40
2022/10/11 03:57:20;;;;;;;7.90;7.20;;;;;;;30.50;70.64;101075.50;5090624;27;44449;-40
2022/10/11 04:00:06;;;;;;;8.10;7.25;;;;;;;30.59;70.40;101074.25;5101041;27;44561;-39
2022/10/11 04:02:49;;;;;;;7.25;6.65;;;;;;;30.60;70.34;101069.66;5095834;27;42900;-38
2022/10/11 04:05:39;;;;;;;7.30;6.90;;;;;;;30.61;70.21;101066.72;5104417;27;42858;-39
2022/10/11 04:08:27;;;;;;;7.43;6.68;;;;;;;30.55;70.16;101051.34;5102554;27;69255;-39
2022/10/11 04:11:11;;;;;;;7.47;6.63;;;;;;;30.64;70.06;101049.22;5107006;27;43873;-40
2022/10/11 04:13:55;;;;;;;7.75;7.05;;;;;;;30.66;70.28;101039.00;5078310;27;44215;-39
2022/10/11 04:16:40;;;;;;;6.85;6.45;;;;;;;30.63;69.56;101024.03;5085267;27;44636;-39
2022/10/11 04:19:23;;;;;;;6.78;6.20;;;;;;;30.62;70.12;101014.25;5080029;27;42913;-39
2022/10/11 04:22:07;;;;;;;8.63;6.72;;;;;;;30.69;69.74;101019.63;5087065;27;44446;-39
2022/10/11 04:24:51;;;;;;;6.57;6.18;;;;;;;30.60;69.47;100989.25;5096247;27;44202;-38
2022/10/11 04:27:35;;;;;;;8.23;6.00;;;;;;;30.72;69.51;101003.75;5099326;27;42909;-38
2022/10/11 04:30:19;;;;;;;6.80;6.30;;;;;;;30.73;69.54;101001.91;5095003;27;42897;-39
2022/10/11 04:33:02;;;;;;;7.43;6.72;;;;;;;30.54;69.74;100968.47;5095344;27;44403;-39
2022/10/11 04:35:46;;;;;;;6.35;5.80;;;;;;;30.76;69.45;100987.09;5093136;27;43743;-40
2022/10/11 04:38:29;;;;;;;6.32;5.72;;;;;;;30.72;69.47;100971.28;5082525;27;43724;-39
2022/10/11 04:41:13;;;;;;;6.05;5.65;;;;;;;30.80;69.21;100977.53;5098253;27;44403;-39
2022/10/11 04:43:58;;;;;;;6.43;5.65;;;;;;;30.81;69.29;100968.34;5098410;27;44500;-40
2022/10/11 04:46:58;;;;;;;6.70;6.20;;;;;;;30.76;69.23;100949.16;5100914;27;44481;-39
2022/10/11 04:49:42;;;;;;;10.23;5.57;;;;;;;30.82;69.31;100948.34;5098947;27;43718;-39
2022/10/11 04:52:27;;;;;;;8.18;5.35;;;;;;;30.84;69.16;100940.81;5098747;27;43467;-39
2022/10/11 04:55:10;;;;;;;6.50;6.00;;;;;;;30.86;68.90;100952.28;5098530;27;44416;-39
2022/10/11 04:57:54;;;;;;;6.50;6.10;;;;;;;30.86;68.51;100941.44;5100991;27;43551;-39
2022/10/11 05:00:37;;;;;;;6.18;5.75;;;;;;;30.88;68.77;100933.94;5094116;27;44234;-40
2022/10/11 05:03:20;;;;;;;6.70;6.30;;;;;;;30.86;68.52;100927.91;5058114;27;2418073;-38
2022/10/11 05:06:05;;;;;;;9.00;5.85;;;;;;;30.92;68.34;100927.00;5094812;27;43704;-41
2022/10/11 05:08:50;;;;;;;6.70;6.10;;;;;;;30.92;68.61;100913.47;5090314;27;44200;-44
2022/10/11 05:11:32;;;;;;;6.85;6.07;;;;;;;30.92;68.60;100899.91;5098699;27;43665;-39
2022/10/11 05:14:13;;;;;;;5.80;5.40;;;;;;;30.81;68.56;100874.38;5055703;27;2336856;-41
2022/10/11 05:16:57;;;;;;;6.13;5.68;;;;;;;30.97;68.26;100891.97;5085924;27;44284;-40
2022/10/11 05:19:42;;;;;;;6.43;5.82;;;;;;;30.97;68.38;100891.97;5090532;27;44697;-40
2022/10/11 05:22:29;;;;;;;6.10;5.70;;;;;;;30.99;68.55;100889.06;5081072;27;44249;-40
2022/10/11 05:25:12;;;;;;;8.38;5.53;;;;;;;30.97;68.57;100883.84;5091995;27;44410;-39
2022/10/11 05:27:53;;;;;;;9.18;5.43;;;;;;;30.93;68.39;100869.91;5067903;27;2346302;-41
2022/10/11 05:30:37;;;;;;;7.65;5.80;;;;;;;31.02;67.97;100878.59;5079651;27;42994;-38
2022/10/11 05:33:21;;;;;;;5.88;5.38;;;;;;;31.03;68.34;100874.81;5085389;27;43742;-37
2022/10/11 05:36:08;;;;;;;6.03;5.43;;;;;;;31.05;67.47;100867.31;5090405;27;43744;-39
2022/10/11 05:38:50;;;;;;;5.72;5.32;;;;;;;31.08;67.50;100861.44;5105375;27;44518;-40
2022/10/11 05:41:33;;;;;;;6.22;5.72;;;;;;;31.00;67.84;100842.75;5098331;27;44432;-39
2022/10/11 05:44:16;;;;;;;5.57;5.18;;;;;;;31.04;67.38;100846.69;5115946;27;43561;-39
2022/10/11 05:47:01;;;;;;;5.57;5.18;;;;;;;31.06;67.43;100835.63;5087015;27;44414;-40
2022/10/11 05:49:44;;;;;;;6.15;5.65;;;;;;;31.13;67.46;100842.66;5081379;27;43678;-40
2022/10/11 05:52:27;;;;;;;5.60;5.20;;;;;;;31.16;67.66;100835.97;5099822;27;44348;-39
2022/10/11 05:55:10;;;;;;;6.20;5.40;;;;;;;31.12;67.41;100813.91;5099481;27;43738;-40
2022/10/11 05:57:57;;;;;;;5.72;5.35;;;;;;;31.08;67.38;100804.56;5094345;27;43638;-38
2022/10/11 06:00:40;;;;;;;6.38;5.63;;;;;;;31.23;67.14;100830.47;5075477;27;44525;-40
2022/10/11 06:03:24;;;;;;;5.95;5.45;;;;;;;31.14;67.17;100803.66;5093433;27;44834;-39
2022/10/11 06:06:09;;;;;;;5.82;5.43;;;;;;;31.29;67.28;100813.31;5101772;27;44529;-40
2022/10/11 06:08:51;;;;;;;5.55;5.15;;;;;;;31.29;66.92;100811.44;5092826;27;43580;-40
2022/10/11 06:11:35;;;;;;;5.82;4.97;;;;;;;31.30;67.07;100804.94;5092415;27;44458;-40
2022/10/11 06:14:32;;;;;;;7.78;4.75;;;;;;;31.35;66.74;100796.16;5103797;27;44518;-39
2022/10/11 06:17:33;;;;;;;4.95;4.50;;;;;;;31.37;66.52;100796.78;5203402;27;44345;-38
2022/10/11 06:20:15;;;;;;;5.07;4.68;;;;;;;31.36;66.58;100792.41;4486847;27;18763681;-39
2022/10/11 06:23:15;;;;;;;4.95;4.65;;;;;;;31.36;66.83;100782.41;5214675;27;44458;-40
2022/10/11 06:26:00;;;;;;;4.90;4.27;;;;;;;31.36;66.47;100785.09;4495982;27;18037917;-38
2022/10/11 06:28:57;;;;;;;6.72;4.80;;;;;;;31.40;66.49;100774.66;5060871;27;44690;-39
2022/10/11 06:32:04;;;;;;;4.43;4.13;;;;;;;31.44;66.18;100761.47;5152459;27;44273;-40
2022/10/11 06:35:04;;;;;;;4.40;4.10;;;;;;;31.45;66.42;100763.94;5201799;27;43580;-39
2022/10/11 06:38:15;;;;;;;4.70;4.30;;;;;;;31.46;66.17;100757.47;5092266;27;44495;-39
2022/10/11 06:41:22;;;;;;;4.93;4.43;;;;;;;31.47;65.75;100756.41;5101139;27;44508;-39
2022/10/11 06:44:18;;;;;;;5.80;4.90;;;;;;;31.36;65.88;100743.63;5097098;27;43781;-39
2022/10/11 06:47:14;;;;;;;5.38;4.90;;;;;;;31.46;66.15;100743.94;5107601;27;44427;-40
2022/10/11 06:49:55;;;;;;;4.53;4.22;;;;;;;31.47;65.97;100745.56;4617805;27;15260210;-39
2022/10/11 06:52:53;;;;;;;11.45;4.28;;;;;;;31.50;65.99;100745.13;5100821;27;44742;-40
2022/10/11 06:56:00;;;;;;;5.97;3.80;;;;;;;31.54;65.98;100738.19;5201972;27;43560;-39
2022/10/11 06:58:59;;;;;;;4.53;4.13;;;;;;;31.54;65.74;100735.47;5092828;27;43823;-39
2022/10/11 07:01:58;;;;;;;6.82;4.15;;;;;;;31.54;65.41;100721.94;5139633;27;43601;-39
2022/10/11 07:04:54;;;;;;;6.18;4.35;;;;;;;31.55;65.78;100715.44;5099602;27;44517;-40
2022/10/11 07:08:04;;;;;;;3.38;3.10;;;;;;;31.58;65.87;100719.59;5123590;27;43716;-40
2022/10/11 07:10:46;;;;;;;6.47;3.93;;;;;;;31.53;65.83;100712.13;4522431;27;18016224;-40
2022/10/11 07:13:50;;;;;;;7.28;3.80;;;;;;;31.10;65.59;100642.59;5120934;27;43685;-38
2022/10/11 07:16:53;;;;;;;4.38;3.97;;;;;;;31.57;65.42;100712.50;5117434;27;44384;-39
2022/10/11 07:19:52;;;;;;;6.45;3.60;;;;;;;31.53;65.83;100695.84;5200046;27;44407;-39
2022/10/11 07:22:53;;;;;;;7.07;4.10;;;;;;;31.51;65.67;100697.13;5199150;27;42829;-39
2022/10/11 07:25:53;;;;;;;4.50;3.67;;;;;;;31.50;65.41;100690.91;5117283;27;44536;-38
2022/10/11 07:28:58;;;;;;;5.82;3.72;;;;;;;31.59;65.43;100699.53;5138715;27;43753;-38
2022/10/11 07:32:04;;;;;;;7.70;3.42;;;;;;;31.61;65.82;100703.66;5131594;27;44519;-40
2022/10/11 07:35:02;;;;;;;3.75;3.33;;;;;;;31.56;65.31;100703.53;5105946;27;44628;-39
2022/10/11 07:38:03;;;;;;;4.00;3.70;;;;;;;31.59;65.40;100702.25;5166238;27;44271;-39
2022/10/11 07:41:04;;;;;;;6.95;3.35;;;;;;;31.57;65.60;100702.50;5093061;27;43733;-38
2022/10/11 07:44:02;;;;;;;5.20;3.85;;;;;;;31.60;65.79;100712.88;5094544;27;43768;-38
2022/10/11 07:46:58;;;;;;;3.50;3.25;;;;;;;31.60;65.89;100695.78;5097037;27;43642;-38
2022/10/11 07:49:57;;;;;;;4.45;3.95;;;;;;;31.61;65.89;100697.44;5186552;27;44115;-38
2022/10/11 07:52:56;;;;;;;4.88;3.92;;;;;;;31.61;65.92;100692.81;5188808;27;44493;-39
2022/10/11 07:56:00;;;;;;;6.72;4.72;;;;;;;31.24;66.26;100643.28;5194265;27;44455;-39
2022/10/11 07:59:00;;;;;;;10.48;9.48;;;;;;;31.60;66.62;100712.06;5108948;27;44593;-39
2022/10/11 08:01:41;;;;;;;30.98;21.75;;;;;;;31.54;66.94;100692.09;4610025;27;15262795;-39
2022/10/11 08:04:54;;;;;;;28.48;20.40;;;;;;;31.45;66.71;100677.19;5147867;27;44559;-38
2022/10/11 08:07:58;;;;;;;29.23;21.58;;;;;;;31.54;67.18;100692.09;5195834;27;44494;-38
2022/10/11 08:10:39;;;;;;;27.60;20.33;;;;;;;31.51;66.86;100698.00;4512787;27;18085414;-41
2022/10/11 08:13:42;;;;;;;22.30;18.13;;;;;;;31.53;67.28;100695.84;5118919;27;43279;-38
2022/10/11 08:16:41;;;;;;;27.98;16.58;;;;;;;31.45;67.46;100682.63;5078227;27;44544;-39
2022/10/11 08:19:37;;;;;;;26.63;16.35;;;;;;;31.42;67.14;100672.22;5128671;27;43624;-38
2022/10/11 08:22:39;;;;;;;23.20;13.90;;;;;;;31.15;67.11;100629.22;5109967;27;44573;-39
2022/10/11 08:25:40;;;;;;;15.30;12.55;;;;;;;31.52;67.53;100696.09;5101200;27;44257;-38
2022/10/11 08:28:41;;;;;;;16.83;12.30;;;;;;;31.45;67.74;100688.03;5201134;27;44491;-39
2022/10/11 08:31:45;;;;;;;15.48;11.63;;;;;;;31.32;67.76;100677.38;5140273;27;43638;-40
2022/10/11 08:34:46;;;;;;;18.48;12.30;;;;;;;31.49;67.92;100700.09;5112573;27;43612;-40
2022/10/11 08:37:48;;;;;;;14.30;12.68;;;;;;;31.47;67.57;100696.78;5106281;27;44465;-39
2022/10/11 08:40:53;;;;;;;16.25;12.10;;;;;;;31.20;67.60;100657.50;5200204;27;43655;-38
2022/10/11 08:44:06;;;;;;;22.20;12.38;;;;;;;30.94;67.66;100610.72;5119360;27;43688;-39
2022/10/11 08:47:25;;;;;;;13.00;11.75;;;;;;;31.35;68.63;100693.16;5108575;27;44578;-39
2022/10/11 08:50:38;;;;;;;16.45;12.82;;;;;;;31.47;68.16;100685.94;5136884;27;44394;-39
2022/10/11 08:53:45;;;;;;;20.60;13.60;;;;;;;31.44;68.29;100699.94;5095217;27;45011;-38
2022/10/11 08:56:45;;;;;;;13.30;11.85;;;;;;;31.41;68.24;100702.28;5095941;27;45439;-38
2022/10/11 08:59:55;;;;;;;20.55;12.40;;;;;;;31.41;68.95;100691.47;5090396;27;44454;-39
2022/10/11 09:02:53;;;;;;;13.52;11.73;;;;;;;31.32;69.75;100694.44;5064279;27;44556;-38
2022/10/11 09:06:15;;;;;;;12.20;11.02;;;;;;;31.26;70.24;100686.38;5081513;27;44465;-38
2022/10/11 09:09:24;;;;;;;13.00;11.55;;;;;;;31.26;70.54;100689.09;5115983;27;44596;-38
2022/10/11 09:12:55;;;;;;;20.40;11.88;;;;;;;30.54;70.29;100583.25;5097144;27;44455;-39
2022/10/11 09:16:13;;;;;;;15.02;11.73;;;;;;;31.24;70.45;100702.88;5076133;27;43606;-38
2022/10/11 09:19:10;;;;;;;28.73;11.95;;;;;;;31.33;69.86;100712.34;5060003;28;43652;-37
2022/10/11 09:22:19;;;;;;;27.83;11.55;;;;;;;31.26;71.41;100705.34;5096746;27;44468;-39
2022/10/11 09:25:04;;;;;;;20.52;11.68;;;;;;;31.33;70.50;100711.53;5073764;27;69562;-39
2022/10/11 09:27:37;;;;;;;20.17;11.32;;;;;;;31.30;70.58;100714.69;5081788;27;64978;-39
2022/10/11 09:30:28;;;;;;;26.88;11.00;;;;;;;31.30;70.75;100720.13;5073591;27;69208;-39
2022/10/11 09:33:16;;;;;;;30.23;10.90;;;;;;;31.26;71.09;100721.59;5074862;27;66439;-39
2022/10/11 09:35:49;;;;;;;21.52;11.40;;;;;;;31.29;70.70;100726.59;5074984;27;69871;-38
2022/10/11 09:38:38;;;;;;;24.73;11.10;;;;;;;30.72;71.11;100646.34;5080217;27;65552;-38
2022/10/11 09:41:24;;;;;;;18.58;11.10;;;;;;;31.24;71.25;100729.16;5071780;27;70742;-38
2022/10/11 09:43:55;;;;;;;31.13;11.90;;;;;;;31.26;70.75;100727.88;5083762;27;66394;-38
2022/10/11 09:46:35;;;;;;;25.15;11.90;;;;;;;31.27;70.80;100728.69;5080943;27;69974;-37
2022/10/11 09:49:13;;;;;;;26.63;11.05;;;;;;;31.19;70.91;100715.47;5073798;27;66663;-39
2022/10/11 09:51:51;;;;;;;22.30;10.52;;;;;;;31.25;70.63;100719.97;5084625;27;69977;-39
2022/10/11 09:54:59;;;;;;;20.25;10.65;;;;;;;31.04;71.63;100713.13;5070611;27;65361;-39
2022/10/11 09:57:33;;;;;;;26.52;13.10;;;;;;;31.10;72.54;100728.47;5074841;27;68958;-38
2022/10/11 10:00:23;;;;;;;24.35;13.07;;;;;;;31.02;73.20;100742.31;5083813;27;65311;-39
2022/10/11 10:03:03;;;;;;;20.88;13.02;;;;;;;31.11;71.39;100736.38;5079464;27;70565;-39
2022/10/11 10:05:37;;;;;;;21.50;13.77;;;;;;;30.68;71.25;100674.94;5079270;27;66077;-37
2022/10/11 10:08:10;;;;;;;34.70;15.65;;;;;;;31.14;71.61;100757.59;5077072;27;69746;-37
2022/10/11 10:10:51;;;;;;;25.50;17.40;;;;;;;31.13;71.65;100760.53;5080936;27;66723;-39
2022/10/11 10:13:50;;;;;;;21.38;15.85;;;;;;;31.12;71.75;100765.13;5079227;27;70219;-38
2022/10/11 10:16:27;;;;;;;29.27;14.82;;;;;;;31.09;71.77;100776.44;5076793;27;66125;-37
2022/10/11 10:19:22;;;;;;;21.80;13.35;;;;;;;31.04;71.64;100773.56;5076508;27;70008;-37
2022/10/11 10:21:55;;;;;;;18.77;13.82;;;;;;;31.09;71.34;100797.25;5069888;27;66726;-39
2022/10/11 10:24:41;;;;;;;12.23;11.00;;;;;;;31.05;72.09;100791.47;5064552;27;70261;-39
2022/10/11 10:27:17;;;;;;;20.27;13.00;;;;;;;31.07;71.89;100786.66;5077046;27;65312;-39
2022/10/11 10:30:09;;;;;;;14.23;10.88;;;;;;;31.00;72.33;100772.34;5075701;27;69727;-40
2022/10/11 10:32:58;;;;;;;22.08;11.98;;;;;;;31.08;72.03;100788.28;5061208;28;66164;-39
2022/10/11 10:35:51;;;;;;;17.67;11.02;;;;;;;30.94;72.90;100762.41;5055009;28;70397;-39
2022/10/11 10:38:25;;;;;;;13.25;11.85;;;;;;;31.09;72.29;100787.25;5060548;28;66326;-39
2022/10/11 10:41:02;;;;;;;21.65;14.75;;;;;;;31.02;72.15;100777.53;5063149;28;69964;-39
2022/10/11 10:43:35;;;;;;;18.70;14.10;;;;;;;30.64;71.97;100722.44;5059463;28;65596;-39
2022/10/11 10:46:21;;;;;;;15.07;11.45;;;;;;;31.07;72.25;100789.38;5061781;28;70087;-39
2022/10/11 10:49:06;;;;;;;17.55;12.18;;;;;;;30.92;72.52;100781.59;5056365;28;66117;-38
2022/10/11 10:52:18;;;;;;;15.68;11.85;;;;;;;31.05;72.44;100791.47;5059453;28;70020;-38
2022/10/11 10:55:11;;;;;;;13.68;12.27;;;;;;;31.02;72.44;100800.03;5061975;28;65677;-39
2022/10/11 10:58:00;;;;;;;13.95;12.50;;;;;;;30.93;72.90;100814.94;5051492;28;70000;-38
2022/10/11 11:00:42;;;;;;;20.10;14.32;;;;;;;31.02;73.01;100810.03;5067798;28;65435;-40
2022/10/11 11:03:28;;;;;;;17.10;14.38;;;;;;;30.53;72.94;100736.69;5064393;28;70206;-38
2022/10/11 11:06:15;;;;;;;19.17;14.77;;;;;;;30.89;72.95;100808.28;5066458;28;65293;-39
2022/10/11 11:09:11;;;;;;;18.33;13.38;;;;;;;30.77;75.98;100810.84;5062277;28;70332;-39
2022/10/11 11:12:09;;;;;;;17.60;14.85;;;;;;;30.67;77.73;100816.78;5031115;28;67053;-39
2022/10/11 11:14:55;;;;;;;21.67;14.85;;;;;;;30.16;78.93;100744.66;5054929;28;70127;-39
2022/10/11 11:17:54;;;;;;;21.45;15.10;;;;;;;30.44;77.25;100819.22;5065856;28;65900;-39
2022/10/11 11:20:45;;;;;;;14.70;13.30;;;;;;;30.28;76.21;100834.97;5050131;28;70459;-39
2022/10/11 11:23:37;;;;;;;28.58;15.52;;;;;;;30.09;75.84;100830.47;5059466;28;66289;-38
2022/10/11 11:26:29;;;;;;;25.05;14.93;;;;;;;29.97;75.31;100832.16;5049410;28;70300;-38
2022/10/11 11:29:05;;;;;;;15.77;13.60;;;;;;;29.94;75.63;100843.41;5061113;28;65564;-40
2022/10/11 11:31:56;;;;;;;15.05;13.07;;;;;;;29.91;74.58;100838.44;5060899;28;69942;-38
2022/10/11 11:34:39;;;;;;;14.73;12.05;;;;;;;29.73;75.18;100821.03;5051781;28;65526;-39
2022/10/11 11:37:25;;;;;;;14.30;12.10;;;;;;;29.45;74.66;100788.88;5060604;28;69230;-39
2022/10/11 11:40:17;;;;;;;14.05;12.13;;;;;;;29.54;74.68;100811.09;5060382;28;65415;-37
2022/10/11 11:42:50;;;;;;;14.52;12.73;;;;;;;29.64;74.38;100827.72;5061588;28;70317;-38
2022/10/11 11:45:27;;;;;;;15.52;12.98;;;;;;;29.64;73.88;100841.22;5062450;28;66757;-38
2022/10/11 11:48:12;;;;;;;12.82;11.40;;;;;;;29.11;73.44;100754.88;5063808;28;70659;-36
2022/10/11 11:50:54;;;;;;;15.88;12.52;;;;;;;29.18;73.91;100771.91;5055493;28;66112;-40
2022/10/11 11:53:35;;;;;;;13.40;12.13;;;;;;;29.44;74.26;100821.53;5059886;28;70043;-36
2022/10/11 11:56:40;;;;;;;17.03;14.33;;;;;;;29.43;73.61;100836.09;5064195;28;66574;-38
2022/10/11 11:59:24;;;;;;;20.50;14.68;;;;;;;29.05;73.73;100774.63;5064104;28;70530;-39
2022/10/11 12:02:04;;;;;;;18.05;15.30;;;;;;;29.53;73.35;100855.38;5063362;28;66375;-37
2022/10/11 12:04:39;;;;;;;17.52;14.43;;;;;;;29.40;73.56;100838.16;5060462;28;69751;-37
2022/10/11 12:07:14;;;;;;;23.10;14.98;;;;;;;29.49;73.94;100852.28;5062292;28;66179;-38
2022/10/11 12:09:53;;;;;;;20.63;15.32;;;;;;;29.46;74.02;100841.06;5058251;28;70076;-38
2022/10/11 12:12:27;;;;;;;19.85;15.60;;;;;;;29.47;73.38;100848.13;5059379;28;65368;-38
2022/10/11 12:15:06;;;;;;;18.95;15.95;;;;;;;29.45;73.68;100840.25;5060132;28;70070;-38
2022/10/11 12:18:16;;;;;;;24.42;16.90;;;;;;;29.23;73.93;100831.56;5057618;28;67029;-38
2022/10/11 12:20:59;;;;;;;24.65;15.05;;;;;;;29.39;72.94;100847.31;5024899;28;70633;-37
2022/10/11 12:23:30;;;;;;;19.95;16.30;;;;;;;29.34;72.86;100849.00;5058913;28;66441;-37
2022/10/11 12:26:29;;;;;;;25.92;17.35;;;;;;;29.22;73.05;100856.06;5056969;28;70462;-37
2022/10/11 12:29:25;;;;;;;24.30;18.17;;;;;;;29.23;73.47;100863.97;5060159;28;66380;-37
2022/10/11 12:32:00;;;;;;;29.83;20.63;;;;;;;29.22;73.68;100866.88;5052879;28;69441;-37
2022/10/11 12:34:36;;;;;;;28.80;22.50;;;;;;;29.17;73.84;100864.81;5064256;28;66407;-37
2022/10/11 12:37:21;;;;;;;28.30;22.38;;;;;;;29.16;73.65;100876.63;5059201;28;70008;-37
2022/10/11 12:39:54;;;;;;;30.77;24.23;;;;;;;28.78;73.34;100815.16;5057683;28;66442;-37
2022/10/11 12:42:29;;;;;;;39.80;25.67;;;;;;;29.19;73.74;100884.31;5055678;28;69239;-39
2022/10/11 12:45:23;;;;;;;32.33;23.65;;;;;;;29.01;73.71;100882.22;5062468;28;65560;-38
2022/10/11 12:48:12;;;;;;;53.20;23.73;;;;;;;29.08;73.60;100887.66;5063242;28;69745;-38